Pagrindinis puslapis
METAR-TAF:

METAR-TAF

Oro uostai :

Kampinasas, San Paulas, Brazilija

platuma: 23-00S, ilguma: 047-08W, Aukštis: 661 m

Dabartinis oras

Ataskaita buvo paskelbta 15 minutes, ne 23:00 UTC
Vėjas 3 kt iš Pietų/Pietryčių
Temperatūra 31°C
Drėgmė 24%
Slėgis 1016 hPa
Matomumas 10 km arba daugiau
nėra debesų žemiau 1500 m ir nėra kamuolinių lietaus debesų

METAR: SBKP 162300Z 16003KT CAVOK 31/08 Q1016

Laikas: 20:15 (23:15 UTC)

Prognozė

Ataskaita buvo paskelbta 7 valandos ir 9 minutes, ne 16:06 UTC
Prognozė galioja nuo 16 metu 18 UTC su 17 metu 18 UTC
Vėjas 5 kt iš Šiaurės
Matomumas 10 km arba daugiau
nėra debesų žemiau 1500 m ir nėra kamuolinių lietaus debesų
Tapsmas
nuo 16 metu 20 UTC su 16 metu 22 UTC
Vėjas 5 kt iš Rytų/Pietryčių
Tapsmas
nuo 17 metu 03 UTC su 17 metu 05 UTC
Vėjas 9 kt iš Rytų/Šiaurės Rytų
Tapsmas
nuo 17 metu 12 UTC su 17 metu 14 UTC
Vėjas 10 kt iš Šiaurės/Šiaurės Vakarų

TAF: SBKP 161606Z 1618/1718 01005KT CAVOK TN20/1709Z TX35/1717Z BECMG 1620/1622 12005KT BECMG 1703/1705 06009KT BECMG 1712/1714 34010KT RMK PHM

Orai ataskaitas ir orų prognozės (METAR, TAF).

turimą stotys yra geltonos ir raudonos taškus žemėlapyje.

Perkelti pele per norėdami pamatyti stoties vardą.

Tada spustelėkite, norėdami matyti oro stebėjimo ir prognozės.

Norėdami pakeisti žemėlapį: spustelėkite ant žalios mygtukų su juodo kryžiaus žemyn,; žalią mygtuką su brūkšneliu, jei norite nutolinti; arba žalių rodyklių gretimoms žemėlapius.


METAR-TAF: